Terminal Aerodrome Forecast
Issued by NWS

Home | Current Version | Previous Version | Graphics & Text | Print | Product List | Glossary On
Versions: 1 2 3 4 5 6 7 8 9 10 11 12 13 14
000
FTUS41 KCLE 301736
TAFFDY
TAF
KFDY 301736Z 3018/0118 23008KT P6SM -SHRA OVC050
      TEMPO 3018/3021 3SM -TSRA SCT008CB OVC050
     FM302300 26008KT P6SM VCTS SCT080CB
     FM010500 26006KT P6SM SCT007 OVC050
      TEMPO 0108/0112 4SM BR OVC007
     FM011500 30007KT P6SM OVC015=

USA.gov is the U.S. government's official web portal to all federal, state and local government web resources and services.